»·PEaware :: SKW132 KMRY-KSBA

SKW132 :: KMRY-KSBA

FLIGHT INFORMATION

Flight Status: Arrived
Operator:
SkyWest Airlines
More flights by this operator :: More flights under this callsign
Pilot: Oliver B. (21155)
Aircraft: DEHAVILLAND DASH 8 300
(DH8C)
More flights by this aircraft type
Origin: KMRY Monterey Peninsula
United States
Destination: KSBA Santa Barbara Mun
United States
More flights between these airports :: More routes between these airports
Route: +MRY5 SHOEY V27 GVO
File this flight plan on PilotEdge
Remarks:
Altitude:
(Current/Filed)
19,000ft
Speed:
(Current/Filed)
220kts
Departed: 27-Sep-19 12:12 PM
Arrived: 27-Sep-19 01:13 PM
Distance/Time
Traveled:
162nm/1:01
Distance/Time
To Go:
Arrived

Flight Plot

Page will automatically refresh every two minutes.

Flight plan parsing failed; only flown route is shown


Map Options




Map Legend


Flown Route
Filed Route
Departure Airport
Arrival Airport
Navaid (VOR, NDB)
Fix

Horizontal Profiles

Position Reports

Time Latitude Longitude Heading Altitude Ground
Speed
27-Sep-19 11:44 36.587633 -121.849959 238 212ft 0kts
27-Sep-19 11:45 36.587633 -121.849959 238 212ft 0kts
27-Sep-19 11:46 36.587633 -121.849959 238 212ft 0kts
27-Sep-19 11:47 36.587633 -121.849959 238 212ft 0kts
27-Sep-19 11:48 36.587633 -121.849959 238 212ft 0kts
27-Sep-19 11:49 36.587633 -121.849959 238 212ft 0kts
27-Sep-19 11:50 36.587633 -121.849959 238 212ft 0kts
27-Sep-19 11:51 36.587633 -121.849959 238 212ft 0kts
27-Sep-19 11:52 36.587633 -121.849959 238 212ft 0kts
27-Sep-19 11:53 36.587633 -121.849959 238 212ft 0kts
27-Sep-19 11:54 36.587633 -121.849959 238 212ft 0kts
27-Sep-19 11:55 36.587633 -121.849959 238 212ft 0kts
27-Sep-19 11:56 36.587633 -121.849959 238 212ft 0kts
27-Sep-19 11:57 36.587633 -121.849959 238 212ft 0kts
27-Sep-19 11:58 36.587633 -121.849959 238 212ft 0kts
27-Sep-19 11:59 36.587633 -121.849959 238 212ft 0kts
27-Sep-19 12:00 36.587873 -121.849410 284 212ft 2kts
27-Sep-19 12:01 36.587857 -121.849348 294 212ft 0kts
27-Sep-19 12:08 36.587857 -121.849348 294 212ft 0kts
27-Sep-19 12:09 36.589116 -121.853068 293 212ft 32kts
27-Sep-19 12:10 36.590322 -121.856754 6 212ft 0kts
27-Sep-19 12:11 36.588246 -121.847722 115 213ft 122kts
27-Sep-19 12:12 36.591324 -121.804638 10 2469ft 161kts
27-Sep-19 12:13 36.643643 -121.815964 342 4694ft 202kts
27-Sep-19 12:14 36.686992 -121.847348 280 7670ft 180kts
27-Sep-19 12:15 36.691852 -121.900821 291 10347ft 135kts
27-Sep-19 12:16 36.692147 -121.968007 287 11047ft 217kts
27-Sep-19 12:17 36.721605 -122.031470 298 13308ft 211kts
27-Sep-19 12:18 36.740420 -122.100813 282 15617ft 216kts
27-Sep-19 12:19 36.724163 -122.165121 198 17562ft 247kts
27-Sep-19 12:20 36.676971 -122.111679 100 18874ft 277kts
27-Sep-19 12:21 36.628681 -122.032377 144 19026ft 313kts
27-Sep-19 12:22 36.555667 -121.968311 146 19028ft 336kts
27-Sep-19 12:23 36.478071 -121.900289 145 19024ft 349kts
27-Sep-19 12:25 36.399907 -121.831410 146 19016ft 355kts
27-Sep-19 12:26 36.320430 -121.762635 146 19014ft 357kts
27-Sep-19 12:27 36.240561 -121.693375 146 19012ft 358kts
27-Sep-19 12:28 36.158253 -121.628019 157 19011ft 357kts
27-Sep-19 12:29 36.069059 -121.583650 159 19008ft 357kts
27-Sep-19 12:30 35.980601 -121.537432 158 19005ft 357kts
27-Sep-19 12:31 35.887693 -121.489070 158 19002ft 357kts
27-Sep-19 12:32 35.793597 -121.440174 158 18997ft 357kts
27-Sep-19 12:33 35.703647 -121.393748 158 18844ft 358kts
27-Sep-19 12:34 35.616305 -121.334525 132 17843ft 366kts
27-Sep-19 12:35 35.555681 -121.236133 127 16860ft 367kts
27-Sep-19 12:36 35.495373 -121.140980 128 15898ft 366kts
27-Sep-19 12:37 35.433815 -121.044174 127 14908ft 360kts
27-Sep-19 12:38 35.374062 -120.950143 128 13930ft 355kts
27-Sep-19 12:39 35.315174 -120.857910 128 12960ft 351kts
27-Sep-19 12:40 35.256153 -120.766007 130 11976ft 348kts
27-Sep-19 12:41 35.184065 -120.695167 144 10966ft 313kts
27-Sep-19 12:42 35.121624 -120.637574 143 10029ft 291kts
27-Sep-19 12:43 35.063816 -120.583451 143 9132ft 293kts
27-Sep-19 12:43 35.009692 -120.533002 143 8299ft 293kts
27-Sep-19 12:45 34.945425 -120.473322 143 7500ft 261kts
27-Sep-19 12:46 34.888819 -120.420811 143 7006ft 258kts
27-Sep-19 12:47 34.832026 -120.368221 142 6523ft 262kts
27-Sep-19 12:47 34.784073 -120.323772 142 6114ft 263kts
27-Sep-19 12:49 34.722477 -120.265830 145 6010ft 249kts
27-Sep-19 12:50 34.668229 -120.216931 143 6020ft 254kts
27-Sep-19 12:50 34.620699 -120.173298 143 6001ft 263kts
27-Sep-19 12:51 34.567381 -120.124181 142 5995ft 258kts
27-Sep-19 12:52 34.515250 -120.067371 132 6010ft 253kts
27-Sep-19 12:53 34.467181 -120.005114 133 5738ft 264kts
27-Sep-19 12:54 34.418547 -119.941827 133 5143ft 261kts
27-Sep-19 12:55 34.372016 -119.880346 132 4995ft 234kts
27-Sep-19 12:56 34.330382 -119.824972 131 4978ft 213kts
27-Sep-19 12:57 34.291705 -119.774247 132 4991ft 203kts
27-Sep-19 12:58 34.253703 -119.722244 126 5019ft 220kts
27-Sep-19 12:59 34.219759 -119.659238 122 4982ft 231kts
27-Sep-19 13:00 34.184609 -119.594092 122 5020ft 240kts
27-Sep-19 13:01 34.148526 -119.527172 123 4983ft 241kts
27-Sep-19 13:02 34.165897 -119.468208 17 5011ft 233kts
27-Sep-19 13:03 34.225327 -119.447816 13 4593ft 249kts
27-Sep-19 13:04 34.286636 -119.462123 302 4006ft 236kts
27-Sep-19 13:05 34.316615 -119.526048 308 4000ft 211kts
27-Sep-19 13:06 34.342952 -119.581962 294 3698ft 188kts
27-Sep-19 13:07 34.368407 -119.633211 299 3075ft 177kts
27-Sep-19 13:08 34.391337 -119.682729 294 2504ft 169kts
27-Sep-19 13:09 34.409952 -119.733937 292 1767ft 158kts
27-Sep-19 13:10 34.425984 -119.782061 289 946ft 152kts
27-Sep-19 13:11 34.428110 -119.827584 268 147ft 128kts
27-Sep-19 13:12 34.427755 -119.845487 269 18ft 13kts
27-Sep-19 13:13 34.429430 -119.845643 23 18ft 17kts

Navigation Log

Ident Type
Flight plan parsing failed, navigation log unavailable